The Plains, Ohio
Current Conditions -  °F | °C
As of 5:15 AM on Sunday 26 Oct 2014 (Local Time) from KUNI Reporting Station
Clear Clear  
Wind Chill: 40°   Ceiling: Unl
Heat Index: 43°   Visibility: 10mi
Dew Point: 41°   Wind: 5mph
Humidity: 93%   Direction: 270°W
Pressure: 29.92"   Gusts: NA
Location:  39.37°N, 82.13°W
Report Text: KUNI 260915Z AUTO 27004KT 10SM CLR 06/05 A2992 RMK AO2 T00620051
Loading
Personal Weather Stations






























Interactive Weather Map
Tropical Storm Tracking
New forecast layout! Learn more

10-Day Weather Forecast

Advertisements
Track Severe Weather on mobile